sensor_id;sensor_type;location;lat;lon;timestamp;pressure;altitude;pressure_sealevel;temperature;humidity
75549;BME280;64133;56.002;37.208;2023-04-08T00:02:08;100134.46;;;1.94;48.13
75549;BME280;64133;56.002;37.208;2023-04-08T00:07:13;100132.41;;;1.91;48.23
75549;BME280;64133;56.002;37.208;2023-04-08T00:12:17;100147.14;;;1.79;48.61
75549;BME280;64133;56.002;37.208;2023-04-08T00:17:22;100145.11;;;1.73;48.73
75549;BME280;64133;56.002;37.208;2023-04-08T00:22:27;100142.67;;;1.69;48.85
75549;BME280;64133;56.002;37.208;2023-04-08T00:27:31;100138.23;;;1.59;49.07
75549;BME280;64133;56.002;37.208;2023-04-08T00:32:36;100139.92;;;1.60;48.96
75549;BME280;64133;56.002;37.208;2023-04-08T00:37:40;100139.30;;;1.54;49.19
75549;BME280;64133;56.002;37.208;2023-04-08T00:42:45;100130.75;;;1.50;49.22
75549;BME280;64133;56.002;37.208;2023-04-08T00:47:50;100137.39;;;1.45;49.30
75549;BME280;64133;56.002;37.208;2023-04-08T00:52:55;100137.94;;;1.42;49.44
75549;BME280;64133;56.002;37.208;2023-04-08T00:57:59;100151.30;;;1.43;49.41
75549;BME280;64133;56.002;37.208;2023-04-08T01:03:06;100143.93;;;1.31;49.76
75549;BME280;64133;56.002;37.208;2023-04-08T01:08:09;100145.26;;;1.29;49.81
75549;BME280;64133;56.002;37.208;2023-04-08T01:13:15;100144.47;;;1.27;49.96
75549;BME280;64133;56.002;37.208;2023-04-08T01:18:19;100141.51;;;1.24;49.93
75549;BME280;64133;56.002;37.208;2023-04-08T01:23:28;100142.19;;;1.16;50.13
75549;BME280;64133;56.002;37.208;2023-04-08T01:28:29;100142.64;;;1.16;50.17
75549;BME280;64133;56.002;37.208;2023-04-08T01:33:33;100143.72;;;1.09;50.17
75549;BME280;64133;56.002;37.208;2023-04-08T01:38:38;100140.39;;;1.05;50.43
75549;BME280;64133;56.002;37.208;2023-04-08T01:43:43;100140.25;;;0.95;50.65
75549;BME280;64133;56.002;37.208;2023-04-08T01:48:47;100142.67;;;0.86;50.91
75549;BME280;64133;56.002;37.208;2023-04-08T01:53:52;100136.91;;;0.77;51.17
75549;BME280;64133;56.002;37.208;2023-04-08T01:58:57;100136.44;;;0.79;51.20
75549;BME280;64133;56.002;37.208;2023-04-08T02:04:01;100140.42;;;0.74;51.40
75549;BME280;64133;56.002;37.208;2023-04-08T02:09:06;100144.03;;;0.70;51.57
75549;BME280;64133;56.002;37.208;2023-04-08T02:14:11;100142.95;;;0.62;51.83
75549;BME280;64133;56.002;37.208;2023-04-08T02:19:17;100143.61;;;0.54;52.03
75549;BME280;64133;56.002;37.208;2023-04-08T02:24:20;100139.72;;;0.54;52.16
75549;BME280;64133;56.002;37.208;2023-04-08T02:29:25;100139.80;;;0.51;52.35
75549;BME280;64133;56.002;37.208;2023-04-08T02:34:29;100138.90;;;0.52;52.41
75549;BME280;64133;56.002;37.208;2023-04-08T02:39:34;100139.78;;;0.53;52.50
75549;BME280;64133;56.002;37.208;2023-04-08T02:44:39;100149.64;;;0.55;52.42
75549;BME280;64133;56.002;37.208;2023-04-08T02:49:43;100149.11;;;0.58;52.52
75549;BME280;64133;56.002;37.208;2023-04-08T02:54:48;100148.72;;;0.57;52.68
75549;BME280;64133;56.002;37.208;2023-04-08T02:59:53;100155.07;;;0.62;52.67
75549;BME280;64133;56.002;37.208;2023-04-08T03:04:57;100160.61;;;0.94;52.30
75549;BME280;64133;56.002;37.208;2023-04-08T03:10:02;100156.44;;;3.50;49.05
75549;BME280;64133;56.002;37.208;2023-04-08T03:15:08;100157.81;;;5.81;44.53
75549;BME280;64133;56.002;37.208;2023-04-08T03:20:13;100155.05;;;5.75;41.65
75549;BME280;64133;56.002;37.208;2023-04-08T03:25:18;100166.83;;;2.83;46.12
75549;BME280;64133;56.002;37.208;2023-04-08T03:30:23;100168.52;;;2.37;48.03
75549;BME280;64133;56.002;37.208;2023-04-08T03:35:28;100162.98;;;4.52;46.20
75549;BME280;64133;56.002;37.208;2023-04-08T03:40:32;100164.20;;;8.90;38.85
75549;BME280;64133;56.002;37.208;2023-04-08T03:45:37;100165.73;;;10.86;35.31
75549;BME280;64133;56.002;37.208;2023-04-08T03:50:42;100157.47;;;11.88;33.31
75549;BME280;64133;56.002;37.208;2023-04-08T03:55:48;100156.14;;;14.83;29.97
75549;BME280;64133;56.002;37.208;2023-04-08T04:00:54;100154.81;;;16.50;27.48
75549;BME280;64133;56.002;37.208;2023-04-08T04:05:58;100148.16;;;16.50;26.29
75549;BME280;64133;56.002;37.208;2023-04-08T04:11:03;100153.83;;;16.37;26.52
75549;BME280;64133;56.002;37.208;2023-04-08T04:16:07;100155.41;;;18.17;24.36
75549;BME280;64133;56.002;37.208;2023-04-08T04:21:12;100156.34;;;17.58;24.64
75549;BME280;64133;56.002;37.208;2023-04-08T04:26:17;100166.27;;;18.68;23.51
75549;BME280;64133;56.002;37.208;2023-04-08T04:31:22;100164.97;;;20.75;21.46
75549;BME280;64133;56.002;37.208;2023-04-08T04:36:26;100165.47;;;22.45;19.71
75549;BME280;64133;56.002;37.208;2023-04-08T04:41:31;100165.55;;;20.05;20.86
75549;BME280;64133;56.002;37.208;2023-04-08T04:46:36;100162.52;;;20.53;20.96
75549;BME280;64133;56.002;37.208;2023-04-08T04:51:40;100172.52;;;21.81;19.63
75549;BME280;64133;56.002;37.208;2023-04-08T04:56:45;100174.97;;;21.28;19.82
75549;BME280;64133;56.002;37.208;2023-04-08T05:01:50;100175.78;;;22.18;18.63
75549;BME280;64133;56.002;37.208;2023-04-08T05:06:55;100172.37;;;23.06;17.90
75549;BME280;64133;56.002;37.208;2023-04-08T05:11:59;100173.97;;;26.43;16.20
75549;BME280;64133;56.002;37.208;2023-04-08T05:17:04;100178.31;;;26.11;15.64
75549;BME280;64133;56.002;37.208;2023-04-08T05:22:09;100174.06;;;26.32;15.19
75549;BME280;64133;56.002;37.208;2023-04-08T05:27:13;100182.17;;;29.46;13.50
75549;BME280;64133;56.002;37.208;2023-04-08T05:32:18;100188.84;;;32.49;11.75
75549;BME280;64133;56.002;37.208;2023-04-08T05:37:22;100189.97;;;33.80;10.86
75549;BME280;64133;56.002;37.208;2023-04-08T05:42:27;100204.42;;;31.61;11.65
75549;BME280;64133;56.002;37.208;2023-04-08T05:47:32;100200.46;;;30.52;11.61
75549;BME280;64133;56.002;37.208;2023-04-08T05:52:40;100202.07;;;31.93;10.81
75549;BME280;64133;56.002;37.208;2023-04-08T05:57:43;100200.05;;;33.74;9.95
75549;BME280;64133;56.002;37.208;2023-04-08T06:02:47;100202.68;;;30.32;11.32
75549;BME280;64133;56.002;37.208;2023-04-08T06:07:52;100212.70;;;33.83;9.63
75549;BME280;64133;56.002;37.208;2023-04-08T06:12:57;100207.11;;;33.46;9.68
75549;BME280;64133;56.002;37.208;2023-04-08T06:18:01;100201.92;;;33.96;9.71
75549;BME280;64133;56.002;37.208;2023-04-08T06:23:06;100200.80;;;35.84;8.61
75549;BME280;64133;56.002;37.208;2023-04-08T06:28:11;100198.27;;;35.60;8.95
75549;BME280;64133;56.002;37.208;2023-04-08T06:33:15;100202.12;;;35.59;8.09
75549;BME280;64133;56.002;37.208;2023-04-08T06:38:20;100201.34;;;34.58;8.85
75549;BME280;64133;56.002;37.208;2023-04-08T06:43:25;100199.82;;;34.43;8.50
75549;BME280;64133;56.002;37.208;2023-04-08T06:48:29;100194.16;;;33.90;8.81
75549;BME280;64133;56.002;37.208;2023-04-08T06:53:34;100195.09;;;33.47;9.09
75549;BME280;64133;56.002;37.208;2023-04-08T06:58:38;100190.69;;;35.97;7.64
75549;BME280;64133;56.002;37.208;2023-04-08T07:03:43;100195.92;;;35.16;8.07
75549;BME280;64133;56.002;37.208;2023-04-08T07:08:48;100195.80;;;32.26;9.21
75549;BME280;64133;56.002;37.208;2023-04-08T07:13:52;100197.51;;;30.21;10.31
75549;BME280;64133;56.002;37.208;2023-04-08T07:18:57;100192.12;;;33.75;8.81
75549;BME280;64133;56.002;37.208;2023-04-08T07:24:02;100190.67;;;35.07;7.77
75549;BME280;64133;56.002;37.208;2023-04-08T07:29:06;100191.50;;;37.44;6.90
75549;BME280;64133;56.002;37.208;2023-04-08T07:34:11;100187.71;;;37.25;6.98
75549;BME280;64133;56.002;37.208;2023-04-08T07:39:16;100191.95;;;36.89;7.00
75549;BME280;64133;56.002;37.208;2023-04-08T07:44:20;100195.52;;;33.88;7.79
75549;BME280;64133;56.002;37.208;2023-04-08T07:49:25;100187.66;;;31.66;9.29
75549;BME280;64133;56.002;37.208;2023-04-08T07:54:31;100183.95;;;34.40;8.18
75549;BME280;64133;56.002;37.208;2023-04-08T07:59:35;100186.33;;;35.16;7.41
75549;BME280;64133;56.002;37.208;2023-04-08T08:04:40;100183.77;;;32.75;8.28
75549;BME280;64133;56.002;37.208;2023-04-08T08:09:44;100188.84;;;35.35;7.12
75549;BME280;64133;56.002;37.208;2023-04-08T08:14:49;100181.02;;;33.60;7.94
75549;BME280;64133;56.002;37.208;2023-04-08T08:19:54;100172.94;;;35.24;7.03
75549;BME280;64133;56.002;37.208;2023-04-08T08:24:59;100170.38;;;31.46;8.47
75549;BME280;64133;56.002;37.208;2023-04-08T08:30:04;100164.73;;;34.32;7.35
75549;BME280;64133;56.002;37.208;2023-04-08T08:35:09;100170.81;;;32.15;7.94
75549;BME280;64133;56.002;37.208;2023-04-08T08:40:14;100174.72;;;27.70;10.20
75549;BME280;64133;56.002;37.208;2023-04-08T08:45:19;100153.14;;;25.46;11.17
75549;BME280;64133;56.002;37.208;2023-04-08T08:50:24;100153.69;;;25.83;11.09
75549;BME280;64133;56.002;37.208;2023-04-08T08:55:30;100154.31;;;22.18;13.13
75549;BME280;64133;56.002;37.208;2023-04-08T09:00:35;100143.96;;;20.02;15.35
75549;BME280;64133;56.002;37.208;2023-04-08T09:05:48;100159.73;;;18.92;16.47
75549;BME280;64133;56.002;37.208;2023-04-08T09:10:53;100155.67;;;17.56;16.86
75549;BME280;64133;56.002;37.208;2023-04-08T09:16:05;100142.06;;;16.53;18.36
75549;BME280;64133;56.002;37.208;2023-04-08T09:21:09;100135.35;;;17.55;17.64
75549;BME280;64133;56.002;37.208;2023-04-08T09:26:13;100141.24;;;18.17;17.38
75549;BME280;64133;56.002;37.208;2023-04-08T09:31:21;100128.68;;;17.38;18.19
75549;BME280;64133;56.002;37.208;2023-04-08T09:36:25;100136.13;;;17.06;17.84
75549;BME280;64133;56.002;37.208;2023-04-08T09:41:31;100137.59;;;17.46;17.75
75549;BME280;64133;56.002;37.208;2023-04-08T09:46:38;100065.59;;;16.65;18.04
75549;BME280;64133;56.002;37.208;2023-04-08T09:51:42;100129.73;;;14.72;20.35
75549;BME280;64133;56.002;37.208;2023-04-08T09:56:48;100130.20;;;16.48;19.31
75549;BME280;64133;56.002;37.208;2023-04-08T10:01:53;100130.94;;;14.99;20.57
75549;BME280;64133;56.002;37.208;2023-04-08T10:12:12;100130.17;;;16.34;20.18
75549;BME280;64133;56.002;37.208;2023-04-08T10:17:26;100124.23;;;19.04;18.40
75549;BME280;64133;56.002;37.208;2023-04-08T10:22:49;100118.27;;;18.76;17.84
75549;BME280;64133;56.002;37.208;2023-04-08T10:27:54;100114.25;;;17.62;19.07
75549;BME280;64133;56.002;37.208;2023-04-08T10:32:58;100116.20;;;19.00;17.82
75549;BME280;64133;56.002;37.208;2023-04-08T10:38:03;100113.85;;;17.21;19.03
75549;BME280;64133;56.002;37.208;2023-04-08T10:43:08;100111.11;;;17.80;18.44
75549;BME280;64133;56.002;37.208;2023-04-08T10:48:14;100111.84;;;16.92;19.27
75549;BME280;64133;56.002;37.208;2023-04-08T10:53:22;100105.43;;;16.14;20.44
75549;BME280;64133;56.002;37.208;2023-04-08T10:58:23;100091.33;;;20.03;17.63
75549;BME280;64133;56.002;37.208;2023-04-08T11:03:27;100087.61;;;19.51;17.25
75549;BME280;64133;56.002;37.208;2023-04-08T11:08:32;100086.89;;;17.38;18.92
75549;BME280;64133;56.002;37.208;2023-04-08T11:13:38;100083.43;;;16.69;19.99
75549;BME280;64133;56.002;37.208;2023-04-08T11:18:41;100083.75;;;17.07;19.41
75549;BME280;64133;56.002;37.208;2023-04-08T11:23:48;100083.03;;;18.38;18.28
75549;BME280;64133;56.002;37.208;2023-04-08T11:28:53;100068.91;;;17.22;18.39
75549;BME280;64133;56.002;37.208;2023-04-08T11:33:58;100067.14;;;18.06;18.26
75549;BME280;64133;56.002;37.208;2023-04-08T11:39:06;100062.06;;;17.73;18.75
75549;BME280;64133;56.002;37.208;2023-04-08T11:44:11;100061.14;;;18.04;18.66
75549;BME280;64133;56.002;37.208;2023-04-08T11:49:16;100055.70;;;18.14;18.39
75549;BME280;64133;56.002;37.208;2023-04-08T11:54:27;100058.45;;;17.07;19.25
75549;BME280;64133;56.002;37.208;2023-04-08T11:59:31;100057.27;;;16.64;19.78
75549;BME280;64133;56.002;37.208;2023-04-08T12:04:36;100049.55;;;16.10;20.43
75549;BME280;64133;56.002;37.208;2023-04-08T12:09:41;100048.84;;;15.26;21.04
75549;BME280;64133;56.002;37.208;2023-04-08T12:14:45;100055.58;;;14.40;21.96
75549;BME280;64133;56.002;37.208;2023-04-08T12:19:50;100047.53;;;14.36;22.39
75549;BME280;64133;56.002;37.208;2023-04-08T12:24:55;100040.73;;;14.74;22.53
75549;BME280;64133;56.002;37.208;2023-04-08T12:29:59;100038.05;;;14.33;22.53
75549;BME280;64133;56.002;37.208;2023-04-08T12:35:05;100039.44;;;14.28;22.96
75549;BME280;64133;56.002;37.208;2023-04-08T12:40:10;100037.13;;;13.77;23.72
75549;BME280;64133;56.002;37.208;2023-04-08T12:45:15;100027.63;;;14.42;23.86
75549;BME280;64133;56.002;37.208;2023-04-08T12:50:19;100022.00;;;14.66;23.60
75549;BME280;64133;56.002;37.208;2023-04-08T12:55:24;100015.28;;;14.96;23.79
75549;BME280;64133;56.002;37.208;2023-04-08T13:00:29;100011.64;;;14.88;23.95
75549;BME280;64133;56.002;37.208;2023-04-08T13:05:33;100007.81;;;14.86;23.93
75549;BME280;64133;56.002;37.208;2023-04-08T13:10:38;100000.99;;;14.93;23.89
75549;BME280;64133;56.002;37.208;2023-04-08T13:15:43;99999.27;;;14.73;24.20
75549;BME280;64133;56.002;37.208;2023-04-08T13:20:47;99997.75;;;14.40;23.97
75549;BME280;64133;56.002;37.208;2023-04-08T13:25:52;99992.16;;;14.48;23.94
75549;BME280;64133;56.002;37.208;2023-04-08T13:30:56;100002.36;;;14.38;24.15
75549;BME280;64133;56.002;37.208;2023-04-08T13:36:01;99990.83;;;14.33;24.03
75549;BME280;64133;56.002;37.208;2023-04-08T13:41:06;99987.69;;;14.18;24.30
75549;BME280;64133;56.002;37.208;2023-04-08T13:46:11;99977.89;;;14.09;24.61
75549;BME280;64133;56.002;37.208;2023-04-08T13:51:15;99973.92;;;14.09;24.61
75549;BME280;64133;56.002;37.208;2023-04-08T13:56:20;99971.76;;;14.08;24.58
75549;BME280;64133;56.002;37.208;2023-04-08T14:01:25;99971.80;;;13.88;24.67
75549;BME280;64133;56.002;37.208;2023-04-08T14:06:29;99978.07;;;13.71;25.02
75549;BME280;64133;56.002;37.208;2023-04-08T14:11:34;99966.06;;;13.46;25.28
75549;BME280;64133;56.002;37.208;2023-04-08T14:16:39;99960.58;;;13.38;25.67
75549;BME280;64133;56.002;37.208;2023-04-08T14:21:43;99963.27;;;13.27;26.07
75549;BME280;64133;56.002;37.208;2023-04-08T14:26:48;99961.34;;;13.29;25.81
75549;BME280;64133;56.002;37.208;2023-04-08T14:31:53;99963.28;;;13.48;26.04
75549;BME280;64133;56.002;37.208;2023-04-08T14:36:57;99960.19;;;13.43;25.99
75549;BME280;64133;56.002;37.208;2023-04-08T14:42:02;99958.21;;;13.29;26.23
75549;BME280;64133;56.002;37.208;2023-04-08T14:47:07;99964.20;;;13.37;26.48
75549;BME280;64133;56.002;37.208;2023-04-08T14:52:12;99954.94;;;13.37;26.33
75549;BME280;64133;56.002;37.208;2023-04-08T14:57:16;99948.02;;;13.25;26.82
75549;BME280;64133;56.002;37.208;2023-04-08T15:02:21;99952.48;;;13.13;26.84
75549;BME280;64133;56.002;37.208;2023-04-08T15:07:26;99956.80;;;13.20;27.04
75549;BME280;64133;56.002;37.208;2023-04-08T15:12:30;99951.02;;;13.15;27.41
75549;BME280;64133;56.002;37.208;2023-04-08T15:17:35;99950.97;;;12.73;27.60
75549;BME280;64133;56.002;37.208;2023-04-08T15:22:40;99936.75;;;12.42;28.08
75549;BME280;64133;56.002;37.208;2023-04-08T15:27:45;99945.27;;;12.40;28.15
75549;BME280;64133;56.002;37.208;2023-04-08T15:32:50;99944.06;;;12.44;28.54
75549;BME280;64133;56.002;37.208;2023-04-08T15:37:54;99949.02;;;12.26;28.65
75549;BME280;64133;56.002;37.208;2023-04-08T15:43:00;99949.00;;;12.31;29.46
75549;BME280;64133;56.002;37.208;2023-04-08T15:48:06;99943.49;;;12.29;29.31
75549;BME280;64133;56.002;37.208;2023-04-08T15:53:11;99947.70;;;12.20;29.92
75549;BME280;64133;56.002;37.208;2023-04-08T15:58:15;99948.55;;;12.15;30.15
75549;BME280;64133;56.002;37.208;2023-04-08T16:03:20;99953.48;;;12.03;30.42
75549;BME280;64133;56.002;37.208;2023-04-08T16:08:25;99937.35;;;11.78;30.90
75549;BME280;64133;56.002;37.208;2023-04-08T16:13:29;99949.72;;;11.77;31.35
75549;BME280;64133;56.002;37.208;2023-04-08T16:18:34;99952.33;;;11.66;31.86
75549;BME280;64133;56.002;37.208;2023-04-08T16:23:39;99958.31;;;11.51;32.66
75549;BME280;64133;56.002;37.208;2023-04-08T16:28:43;99950.35;;;11.29;32.65
75549;BME280;64133;56.002;37.208;2023-04-08T16:33:48;99952.33;;;11.14;33.37
75549;BME280;64133;56.002;37.208;2023-04-08T16:38:53;99956.61;;;11.04;33.09
75549;BME280;64133;56.002;37.208;2023-04-08T16:43:57;99962.22;;;10.94;33.46
75549;BME280;64133;56.002;37.208;2023-04-08T16:49:02;99966.99;;;10.70;34.77
75549;BME280;64133;56.002;37.208;2023-04-08T16:54:07;99966.38;;;10.48;35.55
75549;BME280;64133;56.002;37.208;2023-04-08T16:59:12;99975.25;;;10.29;36.34
75549;BME280;64133;56.002;37.208;2023-04-08T17:04:16;99982.03;;;10.13;36.87
75549;BME280;64133;56.002;37.208;2023-04-08T17:09:22;99977.94;;;9.96;37.69
75549;BME280;64133;56.002;37.208;2023-04-08T17:14:26;99991.09;;;9.83;38.05
75549;BME280;64133;56.002;37.208;2023-04-08T17:19:31;99986.63;;;9.78;38.37
75549;BME280;64133;56.002;37.208;2023-04-08T17:24:36;99988.02;;;9.84;37.98
75549;BME280;64133;56.002;37.208;2023-04-08T17:29:41;99989.06;;;9.81;38.00
75549;BME280;64133;56.002;37.208;2023-04-08T17:34:46;99985.42;;;9.64;38.42
75549;BME280;64133;56.002;37.208;2023-04-08T17:39:51;99988.68;;;9.55;38.45
75549;BME280;64133;56.002;37.208;2023-04-08T17:44:55;99981.89;;;9.45;38.66
75549;BME280;64133;56.002;37.208;2023-04-08T17:50:00;99982.06;;;9.29;39.26
75549;BME280;64133;56.002;37.208;2023-04-08T17:55:06;99988.47;;;9.25;39.32
75549;BME280;64133;56.002;37.208;2023-04-08T18:00:12;99989.69;;;9.07;40.08
75549;BME280;64133;56.002;37.208;2023-04-08T18:05:17;99988.81;;;8.94;40.97
75549;BME280;64133;56.002;37.208;2023-04-08T18:10:22;99984.28;;;8.96;40.55
75549;BME280;64133;56.002;37.208;2023-04-08T18:15:26;99985.11;;;8.76;41.61
75549;BME280;64133;56.002;37.208;2023-04-08T18:20:34;99959.75;;;8.55;41.95
75549;BME280;64133;56.002;37.208;2023-04-08T18:25:39;99978.42;;;8.51;42.69
75549;BME280;64133;56.002;37.208;2023-04-08T18:30:44;99972.63;;;8.46;42.93
75549;BME280;64133;56.002;37.208;2023-04-08T18:35:49;99969.43;;;8.34;43.22
75549;BME280;64133;56.002;37.208;2023-04-08T18:40:53;99972.23;;;8.30;43.43
75549;BME280;64133;56.002;37.208;2023-04-08T18:45:58;99976.09;;;8.32;42.99
75549;BME280;64133;56.002;37.208;2023-04-08T18:51:03;99967.86;;;8.38;42.23
75549;BME280;64133;56.002;37.208;2023-04-08T18:56:13;99973.11;;;8.38;41.93
75549;BME280;64133;56.002;37.208;2023-04-08T19:01:18;99970.73;;;8.34;41.94
75549;BME280;64133;56.002;37.208;2023-04-08T19:06:23;99977.59;;;8.22;42.58
75549;BME280;64133;56.002;37.208;2023-04-08T19:11:27;99982.08;;;8.27;42.09
75549;BME280;64133;56.002;37.208;2023-04-08T19:16:32;99976.56;;;8.46;41.17
75549;BME280;64133;56.002;37.208;2023-04-08T19:21:37;99981.53;;;8.36;41.42
75549;BME280;64133;56.002;37.208;2023-04-08T19:26:42;99976.83;;;8.34;41.39
75549;BME280;64133;56.002;37.208;2023-04-08T19:31:46;99978.53;;;8.14;41.74
75549;BME280;64133;56.002;37.208;2023-04-08T19:36:51;99981.45;;;7.95;42.37
75549;BME280;64133;56.002;37.208;2023-04-08T19:41:56;99983.05;;;7.90;42.22
75549;BME280;64133;56.002;37.208;2023-04-08T19:47:00;99978.27;;;7.83;42.37
75549;BME280;64133;56.002;37.208;2023-04-08T19:52:05;99979.84;;;7.78;42.91
75549;BME280;64133;56.002;37.208;2023-04-08T19:57:10;99976.30;;;7.72;42.96
75549;BME280;64133;56.002;37.208;2023-04-08T20:02:14;99981.44;;;7.73;42.89
75549;BME280;64133;56.002;37.208;2023-04-08T20:07:19;99982.93;;;7.70;42.96
75549;BME280;64133;56.002;37.208;2023-04-08T20:12:24;99982.77;;;7.66;43.22
75549;BME280;64133;56.002;37.208;2023-04-08T20:17:28;99982.57;;;7.62;43.42
75549;BME280;64133;56.002;37.208;2023-04-08T20:22:33;99986.59;;;7.68;43.32
75549;BME280;64133;56.002;37.208;2023-04-08T20:27:38;99988.16;;;7.56;43.68
75549;BME280;64133;56.002;37.208;2023-04-08T20:32:42;99989.77;;;7.59;43.68
75549;BME280;64133;56.002;37.208;2023-04-08T20:37:47;99994.72;;;7.49;43.91
75549;BME280;64133;56.002;37.208;2023-04-08T20:42:52;99996.03;;;7.49;43.82
75549;BME280;64133;56.002;37.208;2023-04-08T20:47:56;99995.61;;;7.34;44.41
75549;BME280;64133;56.002;37.208;2023-04-08T20:53:01;99990.17;;;7.29;44.71
75549;BME280;64133;56.002;37.208;2023-04-08T20:58:06;99986.03;;;7.25;45.01
75549;BME280;64133;56.002;37.208;2023-04-08T21:03:10;99991.08;;;7.21;45.24
75549;BME280;64133;56.002;37.208;2023-04-08T21:08:15;99993.16;;;7.30;45.53
75549;BME280;64133;56.002;37.208;2023-04-08T21:13:20;99994.20;;;7.28;45.75
75549;BME280;64133;56.002;37.208;2023-04-08T21:18:24;99987.20;;;7.05;46.34
75549;BME280;64133;56.002;37.208;2023-04-08T21:23:29;99986.01;;;6.88;47.19
75549;BME280;64133;56.002;37.208;2023-04-08T21:28:34;99984.66;;;6.65;47.59
75549;BME280;64133;56.002;37.208;2023-04-08T21:33:38;99984.75;;;6.48;47.99
75549;BME280;64133;56.002;37.208;2023-04-08T21:38:43;99989.74;;;6.37;48.54
75549;BME280;64133;56.002;37.208;2023-04-08T21:43:48;99989.30;;;6.53;48.50
75549;BME280;64133;56.002;37.208;2023-04-08T21:48:52;99987.42;;;6.55;48.49
75549;BME280;64133;56.002;37.208;2023-04-08T21:53:57;99987.67;;;6.50;48.86
75549;BME280;64133;56.002;37.208;2023-04-08T21:59:02;99994.43;;;6.54;48.85
75549;BME280;64133;56.002;37.208;2023-04-08T22:04:06;99997.02;;;6.70;48.62
75549;BME280;64133;56.002;37.208;2023-04-08T22:09:11;99993.22;;;6.53;49.15
75549;BME280;64133;56.002;37.208;2023-04-08T22:14:17;99996.80;;;6.59;49.29
75549;BME280;64133;56.002;37.208;2023-04-08T22:19:22;100000.64;;;6.45;49.61
75549;BME280;64133;56.002;37.208;2023-04-08T22:24:27;100002.36;;;6.37;49.83
75549;BME280;64133;56.002;37.208;2023-04-08T22:29:31;100005.47;;;6.44;50.13
75549;BME280;64133;56.002;37.208;2023-04-08T22:34:36;100002.14;;;6.33;50.35
75549;BME280;64133;56.002;37.208;2023-04-08T22:39:41;100001.80;;;6.39;50.39
75549;BME280;64133;56.002;37.208;2023-04-08T22:44:45;100001.24;;;6.25;50.66
75549;BME280;64133;56.002;37.208;2023-04-08T22:49:50;100004.20;;;6.35;50.75
75549;BME280;64133;56.002;37.208;2023-04-08T22:54:55;99998.12;;;6.35;50.71
75549;BME280;64133;56.002;37.208;2023-04-08T22:59:59;100000.89;;;6.40;50.86
75549;BME280;64133;56.002;37.208;2023-04-08T23:05:05;99997.50;;;6.38;50.92
75549;BME280;64133;56.002;37.208;2023-04-08T23:10:10;99993.39;;;6.25;51.16
75549;BME280;64133;56.002;37.208;2023-04-08T23:15:15;99999.53;;;6.33;51.23
75549;BME280;64133;56.002;37.208;2023-04-08T23:20:20;99993.95;;;6.23;51.54
75549;BME280;64133;56.002;37.208;2023-04-08T23:25:25;99993.61;;;6.29;51.51
75549;BME280;64133;56.002;37.208;2023-04-08T23:30:29;99991.84;;;6.14;51.77
75549;BME280;64133;56.002;37.208;2023-04-08T23:35:34;99994.29;;;6.09;52.13
75549;BME280;64133;56.002;37.208;2023-04-08T23:40:39;99997.62;;;6.03;52.29
75549;BME280;64133;56.002;37.208;2023-04-08T23:45:44;99991.92;;;6.04;52.30
75549;BME280;64133;56.002;37.208;2023-04-08T23:50:51;99991.20;;;5.93;52.70
75549;BME280;64133;56.002;37.208;2023-04-08T23:56:02;99994.77;;;5.91;52.94
